Terminal Aerodrome Forecast
Issued by NWS

Home | Current Version | Previous Version | Text Only | Print | Product List | Glossary On
Versions: 1 2 3 4 5 6 7 8 9 10 11 12
000
FTUS45 KBOI 251121
TAFJER
TAF
KJER 251121Z 2512/2612 VRB06KT P6SM BKN100
     FM251800 26008KT P6SM BKN100
     FM260300 VRB06KT P6SM VCSH BKN100=

USA.gov is the U.S. government's official web portal to all federal, state and local government web resources and services.